Terminal Aerodrome Forecast
Issued by NWS Atlanta, GA

Home | Current Version | Previous Version | Text Only | Print | Product List | Glossary On
Versions: 1 2 3 4 5 6 7 8 9 10 11 12 13 14 15 16 17 18 19 20 21 22 23 24 25 26 27 28 29 30 31 32 33 34 35 36 37 38 39 40 41 42 43 44 45 46 47 48 49 50
781
FTUS42 KFFC 200344 AAB
TAFATL
TAF AMD
KATL 200344Z 2004/2106 26012KT P6SM -SHRA SCT015 OVC035
     FM200600 25013KT P6SM VCSH OVC015
     FM201000 24012KT P6SM -SHRA OVC015
     FM201800 26012G20KT P6SM OVC025
     FM202200 28011KT P6SM OVC035
     FM210300 27005KT P6SM SCT120=

USA.gov is the U.S. government's official web portal to all federal, state and local government web resources and services.